sensor_id;sensor_type;location;lat;lon;timestamp;P1;durP1;ratioP1;P2;durP2;ratioP2
75054;SDS011;63636;44.746;10.488;2022-10-16T00:02:24;47.92;;;25.10;;
75054;SDS011;63636;44.746;10.488;2022-10-16T00:04:50;45.92;;;25.67;;
75054;SDS011;63636;44.746;10.488;2022-10-16T00:07:15;46.78;;;26.00;;
75054;SDS011;63636;44.746;10.488;2022-10-16T00:09:41;44.42;;;25.67;;
75054;SDS011;63636;44.746;10.488;2022-10-16T00:12:06;45.53;;;24.92;;
75054;SDS011;63636;44.746;10.488;2022-10-16T00:14:32;43.95;;;25.15;;
75054;SDS011;63636;44.746;10.488;2022-10-16T00:16:58;44.20;;;24.08;;
75054;SDS011;63636;44.746;10.488;2022-10-16T00:19:23;44.10;;;24.50;;
75054;SDS011;63636;44.746;10.488;2022-10-16T00:21:49;45.17;;;25.13;;
75054;SDS011;63636;44.746;10.488;2022-10-16T00:24:33;43.58;;;24.10;;
75054;SDS011;63636;44.746;10.488;2022-10-16T00:26:59;43.13;;;24.05;;
75054;SDS011;63636;44.746;10.488;2022-10-16T00:29:24;44.33;;;24.60;;
75054;SDS011;63636;44.746;10.488;2022-10-16T00:31:50;46.00;;;24.85;;
75054;SDS011;63636;44.746;10.488;2022-10-16T00:34:15;45.85;;;24.88;;
75054;SDS011;63636;44.746;10.488;2022-10-16T00:36:41;45.55;;;24.63;;
75054;SDS011;63636;44.746;10.488;2022-10-16T00:39:06;44.15;;;23.63;;
75054;SDS011;63636;44.746;10.488;2022-10-16T00:41:32;43.20;;;23.67;;
75054;SDS011;63636;44.746;10.488;2022-10-16T00:43:59;41.58;;;22.98;;
75054;SDS011;63636;44.746;10.488;2022-10-16T00:46:35;39.85;;;21.98;;
75054;SDS011;63636;44.746;10.488;2022-10-16T00:51:33;39.10;;;21.63;;
75054;SDS011;63636;44.746;10.488;2022-10-16T00:53:59;36.08;;;21.13;;
75054;SDS011;63636;44.746;10.488;2022-10-16T00:56:25;38.22;;;21.80;;
75054;SDS011;63636;44.746;10.488;2022-10-16T00:58:51;37.72;;;21.17;;
75054;SDS011;63636;44.746;10.488;2022-10-16T01:01:16;37.30;;;21.42;;
75054;SDS011;63636;44.746;10.488;2022-10-16T01:03:42;36.92;;;20.70;;
75054;SDS011;63636;44.746;10.488;2022-10-16T01:14:08;38.40;;;20.00;;
75054;SDS011;63636;44.746;10.488;2022-10-16T01:19:44;36.30;;;20.63;;
75054;SDS011;63636;44.746;10.488;2022-10-16T01:22:15;36.67;;;20.20;;
75054;SDS011;63636;44.746;10.488;2022-10-16T01:24:43;37.75;;;19.98;;
75054;SDS011;63636;44.746;10.488;2022-10-16T01:27:28;34.65;;;19.73;;
75054;SDS011;63636;44.746;10.488;2022-10-16T01:30:00;38.50;;;20.20;;
75054;SDS011;63636;44.746;10.488;2022-10-16T01:34:59;34.88;;;19.35;;
75054;SDS011;63636;44.746;10.488;2022-10-16T01:37:29;34.33;;;19.58;;
75054;SDS011;63636;44.746;10.488;2022-10-16T01:39:58;33.50;;;19.13;;
75054;SDS011;63636;44.746;10.488;2022-10-16T01:42:25;35.30;;;19.40;;
75054;SDS011;63636;44.746;10.488;2022-10-16T01:44:52;36.63;;;20.27;;
75054;SDS011;63636;44.746;10.488;2022-10-16T01:47:18;36.42;;;20.25;;
75054;SDS011;63636;44.746;10.488;2022-10-16T01:49:47;36.67;;;20.30;;
75054;SDS011;63636;44.746;10.488;2022-10-16T01:52:14;34.58;;;20.30;;
75054;SDS011;63636;44.746;10.488;2022-10-16T01:54:40;37.92;;;21.45;;
75054;SDS011;63636;44.746;10.488;2022-10-16T01:57:08;37.72;;;20.73;;
75054;SDS011;63636;44.746;10.488;2022-10-16T01:59:37;38.08;;;21.05;;
75054;SDS011;63636;44.746;10.488;2022-10-16T02:02:04;38.33;;;21.40;;
75054;SDS011;63636;44.746;10.488;2022-10-16T02:04:35;35.95;;;20.63;;
75054;SDS011;63636;44.746;10.488;2022-10-16T02:07:01;38.92;;;21.25;;
75054;SDS011;63636;44.746;10.488;2022-10-16T02:09:27;39.97;;;22.77;;
75054;SDS011;63636;44.746;10.488;2022-10-16T02:11:53;42.08;;;23.20;;
75054;SDS011;63636;44.746;10.488;2022-10-16T02:14:20;41.03;;;23.75;;
75054;SDS011;63636;44.746;10.488;2022-10-16T02:16:47;38.88;;;22.88;;
75054;SDS011;63636;44.746;10.488;2022-10-16T02:19:13;42.40;;;23.73;;
75054;SDS011;63636;44.746;10.488;2022-10-16T02:21:44;45.20;;;24.33;;
75054;SDS011;63636;44.746;10.488;2022-10-16T02:26:43;47.55;;;24.60;;
75054;SDS011;63636;44.746;10.488;2022-10-16T02:31:38;42.85;;;24.17;;
75054;SDS011;63636;44.746;10.488;2022-10-16T02:34:06;43.67;;;23.95;;
75054;SDS011;63636;44.746;10.488;2022-10-16T02:36:32;44.70;;;23.70;;
75054;SDS011;63636;44.746;10.488;2022-10-16T02:38:58;44.90;;;24.60;;
75054;SDS011;63636;44.746;10.488;2022-10-16T02:41:26;45.17;;;24.63;;
75054;SDS011;63636;44.746;10.488;2022-10-16T02:43:52;44.75;;;25.40;;
75054;SDS011;63636;44.746;10.488;2022-10-16T02:46:17;45.45;;;24.40;;
75054;SDS011;63636;44.746;10.488;2022-10-16T02:48:43;46.65;;;25.90;;
75054;SDS011;63636;44.746;10.488;2022-10-16T02:51:09;44.83;;;24.42;;
75054;SDS011;63636;44.746;10.488;2022-10-16T02:53:34;46.17;;;24.60;;
75054;SDS011;63636;44.746;10.488;2022-10-16T02:56:00;43.78;;;25.02;;
75054;SDS011;63636;44.746;10.488;2022-10-16T02:58:26;49.90;;;25.23;;
75054;SDS011;63636;44.746;10.488;2022-10-16T03:00:52;46.10;;;25.33;;
75054;SDS011;63636;44.746;10.488;2022-10-16T03:03:17;44.03;;;24.95;;
75054;SDS011;63636;44.746;10.488;2022-10-16T03:05:43;48.90;;;25.08;;
75054;SDS011;63636;44.746;10.488;2022-10-16T03:08:11;51.28;;;26.10;;
75054;SDS011;63636;44.746;10.488;2022-10-16T03:10:37;43.67;;;23.80;;
75054;SDS011;63636;44.746;10.488;2022-10-16T03:13:02;44.63;;;24.20;;
75054;SDS011;63636;44.746;10.488;2022-10-16T03:15:28;46.70;;;25.60;;
75054;SDS011;63636;44.746;10.488;2022-10-16T03:17:54;37.00;;;21.13;;
75054;SDS011;63636;44.746;10.488;2022-10-16T03:20:20;35.45;;;20.08;;
75054;SDS011;63636;44.746;10.488;2022-10-16T03:22:45;48.50;;;23.85;;
75054;SDS011;63636;44.746;10.488;2022-10-16T03:25:26;39.42;;;20.90;;
75054;SDS011;63636;44.746;10.488;2022-10-16T03:27:51;39.33;;;21.00;;
75054;SDS011;63636;44.746;10.488;2022-10-16T03:30:17;40.30;;;20.83;;
75054;SDS011;63636;44.746;10.488;2022-10-16T03:32:45;37.35;;;22.17;;
75054;SDS011;63636;44.746;10.488;2022-10-16T03:35:11;35.67;;;20.45;;
75054;SDS011;63636;44.746;10.488;2022-10-16T03:37:37;34.55;;;20.33;;
75054;SDS011;63636;44.746;10.488;2022-10-16T03:40:02;32.55;;;19.83;;
75054;SDS011;63636;44.746;10.488;2022-10-16T03:42:28;32.85;;;18.80;;
75054;SDS011;63636;44.746;10.488;2022-10-16T03:44:54;33.92;;;17.98;;
75054;SDS011;63636;44.746;10.488;2022-10-16T03:47:19;30.52;;;16.98;;
75054;SDS011;63636;44.746;10.488;2022-10-16T03:49:47;28.63;;;15.70;;
75054;SDS011;63636;44.746;10.488;2022-10-16T03:52:13;28.70;;;16.13;;
75054;SDS011;63636;44.746;10.488;2022-10-16T03:54:39;27.83;;;16.08;;
75054;SDS011;63636;44.746;10.488;2022-10-16T03:57:04;26.15;;;14.90;;
75054;SDS011;63636;44.746;10.488;2022-10-16T03:59:30;28.88;;;16.10;;
75054;SDS011;63636;44.746;10.488;2022-10-16T04:01:55;24.52;;;14.02;;
75054;SDS011;63636;44.746;10.488;2022-10-16T04:04:21;26.92;;;14.18;;
75054;SDS011;63636;44.746;10.488;2022-10-16T04:06:46;32.22;;;15.10;;
75054;SDS011;63636;44.746;10.488;2022-10-16T04:09:12;30.45;;;15.20;;
75054;SDS011;63636;44.746;10.488;2022-10-16T04:11:37;22.67;;;13.73;;
75054;SDS011;63636;44.746;10.488;2022-10-16T04:14:04;26.27;;;13.70;;
75054;SDS011;63636;44.746;10.488;2022-10-16T04:16:29;23.83;;;13.38;;
75054;SDS011;63636;44.746;10.488;2022-10-16T04:18:55;23.45;;;12.90;;
75054;SDS011;63636;44.746;10.488;2022-10-16T04:21:20;24.38;;;13.15;;
75054;SDS011;63636;44.746;10.488;2022-10-16T04:23:46;24.02;;;13.27;;
75054;SDS011;63636;44.746;10.488;2022-10-16T04:26:12;21.75;;;12.63;;
75054;SDS011;63636;44.746;10.488;2022-10-16T04:28:37;23.95;;;12.90;;
75054;SDS011;63636;44.746;10.488;2022-10-16T04:31:03;23.77;;;13.55;;
75054;SDS011;63636;44.746;10.488;2022-10-16T04:33:29;27.70;;;13.48;;
75054;SDS011;63636;44.746;10.488;2022-10-16T04:35:58;25.63;;;14.07;;
75054;SDS011;63636;44.746;10.488;2022-10-16T04:38:24;25.88;;;14.57;;
75054;SDS011;63636;44.746;10.488;2022-10-16T04:40:49;26.48;;;14.60;;
75054;SDS011;63636;44.746;10.488;2022-10-16T04:43:15;24.30;;;14.10;;
75054;SDS011;63636;44.746;10.488;2022-10-16T04:45:41;24.10;;;13.65;;
75054;SDS011;63636;44.746;10.488;2022-10-16T04:48:06;25.38;;;13.93;;
75054;SDS011;63636;44.746;10.488;2022-10-16T04:50:32;25.25;;;13.77;;
75054;SDS011;63636;44.746;10.488;2022-10-16T04:53:04;23.15;;;12.95;;
75054;SDS011;63636;44.746;10.488;2022-10-16T04:55:30;24.70;;;13.30;;
75054;SDS011;63636;44.746;10.488;2022-10-16T04:57:56;23.80;;;13.32;;
75054;SDS011;63636;44.746;10.488;2022-10-16T05:00:21;22.58;;;12.95;;
75054;SDS011;63636;44.746;10.488;2022-10-16T05:02:49;26.45;;;13.50;;
75054;SDS011;63636;44.746;10.488;2022-10-16T05:05:14;24.40;;;13.65;;
75054;SDS011;63636;44.746;10.488;2022-10-16T05:07:40;25.60;;;13.07;;
75054;SDS011;63636;44.746;10.488;2022-10-16T05:10:06;24.55;;;13.32;;
75054;SDS011;63636;44.746;10.488;2022-10-16T05:12:32;27.55;;;12.57;;
75054;SDS011;63636;44.746;10.488;2022-10-16T05:14:57;20.73;;;12.43;;
75054;SDS011;63636;44.746;10.488;2022-10-16T05:17:26;21.15;;;12.05;;
75054;SDS011;63636;44.746;10.488;2022-10-16T05:19:52;21.25;;;11.90;;
75054;SDS011;63636;44.746;10.488;2022-10-16T05:22:18;24.20;;;12.52;;
75054;SDS011;63636;44.746;10.488;2022-10-16T05:24:43;22.02;;;12.90;;
75054;SDS011;63636;44.746;10.488;2022-10-16T05:27:09;22.20;;;12.70;;
75054;SDS011;63636;44.746;10.488;2022-10-16T05:29:35;21.08;;;11.98;;
75054;SDS011;63636;44.746;10.488;2022-10-16T05:32:00;23.35;;;12.15;;
75054;SDS011;63636;44.746;10.488;2022-10-16T05:34:26;22.05;;;11.95;;
75054;SDS011;63636;44.746;10.488;2022-10-16T05:36:51;19.25;;;10.75;;
75054;SDS011;63636;44.746;10.488;2022-10-16T05:39:17;20.55;;;10.85;;
75054;SDS011;63636;44.746;10.488;2022-10-16T05:41:43;19.35;;;10.60;;
75054;SDS011;63636;44.746;10.488;2022-10-16T05:44:08;21.13;;;10.70;;
75054;SDS011;63636;44.746;10.488;2022-10-16T05:46:34;20.45;;;10.80;;
75054;SDS011;63636;44.746;10.488;2022-10-16T05:48:59;19.08;;;10.90;;
75054;SDS011;63636;44.746;10.488;2022-10-16T05:51:25;18.55;;;10.85;;
75054;SDS011;63636;44.746;10.488;2022-10-16T05:53:51;20.50;;;10.68;;
75054;SDS011;63636;44.746;10.488;2022-10-16T05:56:17;19.05;;;10.57;;
75054;SDS011;63636;44.746;10.488;2022-10-16T05:58:42;19.73;;;10.55;;
75054;SDS011;63636;44.746;10.488;2022-10-16T06:01:10;20.35;;;10.73;;
75054;SDS011;63636;44.746;10.488;2022-10-16T06:03:36;19.23;;;10.73;;
75054;SDS011;63636;44.746;10.488;2022-10-16T06:06:09;20.35;;;10.48;;
75054;SDS011;63636;44.746;10.488;2022-10-16T06:11:01;17.58;;;8.82;;
75054;SDS011;63636;44.746;10.488;2022-10-16T06:13:29;15.45;;;9.00;;
75054;SDS011;63636;44.746;10.488;2022-10-16T06:15:56;15.68;;;8.60;;
75054;SDS011;63636;44.746;10.488;2022-10-16T06:18:22;17.63;;;10.07;;
75054;SDS011;63636;44.746;10.488;2022-10-16T06:20:48;17.63;;;9.70;;
75054;SDS011;63636;44.746;10.488;2022-10-16T06:23:14;20.25;;;9.60;;
75054;SDS011;63636;44.746;10.488;2022-10-16T06:25:39;15.63;;;8.57;;
75054;SDS011;63636;44.746;10.488;2022-10-16T06:28:05;16.02;;;8.25;;
75054;SDS011;63636;44.746;10.488;2022-10-16T06:30:30;14.05;;;7.85;;
75054;SDS011;63636;44.746;10.488;2022-10-16T06:32:56;13.40;;;7.25;;
75054;SDS011;63636;44.746;10.488;2022-10-16T06:35:22;13.98;;;7.68;;
75054;SDS011;63636;44.746;10.488;2022-10-16T06:37:47;14.32;;;8.07;;
75054;SDS011;63636;44.746;10.488;2022-10-16T06:40:13;13.52;;;7.50;;
75054;SDS011;63636;44.746;10.488;2022-10-16T06:42:40;12.90;;;7.72;;
75054;SDS011;63636;44.746;10.488;2022-10-16T06:45:05;13.65;;;7.80;;
75054;SDS011;63636;44.746;10.488;2022-10-16T06:47:31;12.90;;;7.30;;
75054;SDS011;63636;44.746;10.488;2022-10-16T06:49:56;13.30;;;7.40;;
75054;SDS011;63636;44.746;10.488;2022-10-16T06:52:22;14.45;;;7.90;;
75054;SDS011;63636;44.746;10.488;2022-10-16T06:54:48;13.05;;;7.20;;
75054;SDS011;63636;44.746;10.488;2022-10-16T06:57:14;15.68;;;7.10;;
75054;SDS011;63636;44.746;10.488;2022-10-16T06:59:40;14.43;;;6.90;;
75054;SDS011;63636;44.746;10.488;2022-10-16T07:02:05;14.57;;;6.50;;
75054;SDS011;63636;44.746;10.488;2022-10-16T07:04:32;13.52;;;6.80;;
75054;SDS011;63636;44.746;10.488;2022-10-16T07:06:59;11.55;;;6.30;;
75054;SDS011;63636;44.746;10.488;2022-10-16T07:09:25;12.60;;;6.72;;
75054;SDS011;63636;44.746;10.488;2022-10-16T07:11:50;13.82;;;6.13;;
75054;SDS011;63636;44.746;10.488;2022-10-16T07:14:17;10.50;;;6.22;;
75054;SDS011;63636;44.746;10.488;2022-10-16T07:16:43;12.43;;;6.05;;
75054;SDS011;63636;44.746;10.488;2022-10-16T07:19:08;11.85;;;6.20;;
75054;SDS011;63636;44.746;10.488;2022-10-16T07:21:34;10.13;;;5.75;;
75054;SDS011;63636;44.746;10.488;2022-10-16T07:24:00;10.30;;;5.63;;
75054;SDS011;63636;44.746;10.488;2022-10-16T07:26:27;11.15;;;5.70;;
75054;SDS011;63636;44.746;10.488;2022-10-16T07:28:52;10.38;;;5.50;;
75054;SDS011;63636;44.746;10.488;2022-10-16T07:31:19;14.13;;;5.53;;
75054;SDS011;63636;44.746;10.488;2022-10-16T07:33:45;11.70;;;5.03;;
75054;SDS011;63636;44.746;10.488;2022-10-16T07:36:11;13.23;;;5.63;;
75054;SDS011;63636;44.746;10.488;2022-10-16T07:38:37;8.98;;;5.10;;
75054;SDS011;63636;44.746;10.488;2022-10-16T07:41:07;9.98;;;5.25;;
75054;SDS011;63636;44.746;10.488;2022-10-16T07:43:33;11.05;;;4.85;;
75054;SDS011;63636;44.746;10.488;2022-10-16T07:45:59;8.55;;;4.72;;
75054;SDS011;63636;44.746;10.488;2022-10-16T07:48:29;9.43;;;4.78;;
75054;SDS011;63636;44.746;10.488;2022-10-16T07:50:59;13.88;;;4.93;;
75054;SDS011;63636;44.746;10.488;2022-10-16T07:53:25;10.88;;;5.03;;
75054;SDS011;63636;44.746;10.488;2022-10-16T07:55:51;11.85;;;5.22;;
75054;SDS011;63636;44.746;10.488;2022-10-16T07:58:16;12.75;;;5.53;;
75054;SDS011;63636;44.746;10.488;2022-10-16T08:00:42;11.65;;;5.18;;
75054;SDS011;63636;44.746;10.488;2022-10-16T08:03:08;8.95;;;4.95;;
75054;SDS011;63636;44.746;10.488;2022-10-16T08:05:33;9.43;;;4.90;;
75054;SDS011;63636;44.746;10.488;2022-10-16T08:08:00;10.68;;;4.80;;
75054;SDS011;63636;44.746;10.488;2022-10-16T08:10:26;9.02;;;4.72;;
75054;SDS011;63636;44.746;10.488;2022-10-16T08:12:52;12.43;;;5.03;;
75054;SDS011;63636;44.746;10.488;2022-10-16T08:15:18;8.98;;;4.60;;
75054;SDS011;63636;44.746;10.488;2022-10-16T08:17:44;9.45;;;4.57;;
75054;SDS011;63636;44.746;10.488;2022-10-16T08:20:10;10.60;;;5.07;;
75054;SDS011;63636;44.746;10.488;2022-10-16T08:22:36;8.98;;;4.50;;
75054;SDS011;63636;44.746;10.488;2022-10-16T08:25:01;9.68;;;4.70;;
75054;SDS011;63636;44.746;10.488;2022-10-16T08:27:31;8.48;;;4.53;;
75054;SDS011;63636;44.746;10.488;2022-10-16T08:29:57;9.45;;;4.90;;
75054;SDS011;63636;44.746;10.488;2022-10-16T08:32:22;11.23;;;5.00;;
75054;SDS011;63636;44.746;10.488;2022-10-16T08:34:48;9.27;;;4.35;;
75054;SDS011;63636;44.746;10.488;2022-10-16T08:37:13;9.60;;;4.43;;
75054;SDS011;63636;44.746;10.488;2022-10-16T08:39:39;7.68;;;4.20;;
75054;SDS011;63636;44.746;10.488;2022-10-16T08:42:07;11.02;;;5.00;;
75054;SDS011;63636;44.746;10.488;2022-10-16T08:47:58;10.00;;;5.90;;
75054;SDS011;63636;44.746;10.488;2022-10-16T08:50:13;11.00;;;5.38;;
75054;SDS011;63636;44.746;10.488;2022-10-16T08:52:40;11.77;;;5.65;;
75054;SDS011;63636;44.746;10.488;2022-10-16T08:55:08;9.52;;;5.38;;
75054;SDS011;63636;44.746;10.488;2022-10-16T08:57:42;10.00;;;5.28;;
75054;SDS011;63636;44.746;10.488;2022-10-16T09:00:13;10.15;;;5.20;;
75054;SDS011;63636;44.746;10.488;2022-10-16T09:07:59;9.43;;;5.28;;
75054;SDS011;63636;44.746;10.488;2022-10-16T09:10:33;10.30;;;5.53;;
75054;SDS011;63636;44.746;10.488;2022-10-16T09:20:50;14.02;;;5.93;;
75054;SDS011;63636;44.746;10.488;2022-10-16T09:23:18;9.88;;;5.28;;
75054;SDS011;63636;44.746;10.488;2022-10-16T09:25:45;11.55;;;5.32;;
75054;SDS011;63636;44.746;10.488;2022-10-16T09:28:13;10.00;;;5.85;;
75054;SDS011;63636;44.746;10.488;2022-10-16T09:30:40;10.90;;;5.28;;
75054;SDS011;63636;44.746;10.488;2022-10-16T09:33:05;10.65;;;6.05;;
75054;SDS011;63636;44.746;10.488;2022-10-16T09:35:36;11.70;;;6.32;;
75054;SDS011;63636;44.746;10.488;2022-10-16T09:38:02;15.07;;;6.30;;
75054;SDS011;63636;44.746;10.488;2022-10-16T09:45:38;17.55;;;8.35;;
75054;SDS011;63636;44.746;10.488;2022-10-16T09:48:13;14.95;;;8.80;;
75054;SDS011;63636;44.746;10.488;2022-10-16T09:50:43;15.88;;;8.25;;
75054;SDS011;63636;44.746;10.488;2022-10-16T09:53:13;15.90;;;7.78;;
75054;SDS011;63636;44.746;10.488;2022-10-16T09:55:49;12.57;;;6.50;;
75054;SDS011;63636;44.746;10.488;2022-10-16T09:58:15;12.88;;;7.10;;
75054;SDS011;63636;44.746;10.488;2022-10-16T10:00:41;11.50;;;7.30;;
75054;SDS011;63636;44.746;10.488;2022-10-16T10:03:10;14.43;;;7.30;;
75054;SDS011;63636;44.746;10.488;2022-10-16T10:05:37;12.65;;;6.80;;
75054;SDS011;63636;44.746;10.488;2022-10-16T10:08:04;11.57;;;7.13;;
75054;SDS011;63636;44.746;10.488;2022-10-16T10:10:47;12.90;;;7.45;;
75054;SDS011;63636;44.746;10.488;2022-10-16T10:13:19;11.90;;;7.50;;
75054;SDS011;63636;44.746;10.488;2022-10-16T10:15:46;12.18;;;7.50;;
75054;SDS011;63636;44.746;10.488;2022-10-16T10:18:15;15.50;;;8.48;;
75054;SDS011;63636;44.746;10.488;2022-10-16T10:20:42;16.40;;;8.20;;
75054;SDS011;63636;44.746;10.488;2022-10-16T10:23:41;14.82;;;9.35;;
75054;SDS011;63636;44.746;10.488;2022-10-16T10:28:55;16.23;;;9.20;;
75054;SDS011;63636;44.746;10.488;2022-10-16T10:31:47;17.92;;;10.52;;
75054;SDS011;63636;44.746;10.488;2022-10-16T10:36:43;17.38;;;10.45;;
75054;SDS011;63636;44.746;10.488;2022-10-16T10:39:15;19.50;;;11.00;;
75054;SDS011;63636;44.746;10.488;2022-10-16T10:41:51;17.98;;;10.65;;
75054;SDS011;63636;44.746;10.488;2022-10-16T10:46:48;20.50;;;12.35;;
75054;SDS011;63636;44.746;10.488;2022-10-16T10:52:07;19.40;;;11.35;;
75054;SDS011;63636;44.746;10.488;2022-10-16T11:02:13;19.95;;;12.40;;
75054;SDS011;63636;44.746;10.488;2022-10-16T11:07:25;20.50;;;12.45;;
75054;SDS011;63636;44.746;10.488;2022-10-16T11:09:53;25.40;;;12.80;;
75054;SDS011;63636;44.746;10.488;2022-10-16T11:12:23;21.95;;;12.63;;
75054;SDS011;63636;44.746;10.488;2022-10-16T11:17:21;23.27;;;13.02;;
75054;SDS011;63636;44.746;10.488;2022-10-16T11:25:25;22.48;;;14.27;;
75054;SDS011;63636;44.746;10.488;2022-10-16T11:27:54;22.98;;;13.38;;
75054;SDS011;63636;44.746;10.488;2022-10-16T11:30:22;21.65;;;13.68;;
75054;SDS011;63636;44.746;10.488;2022-10-16T11:35:29;24.23;;;13.82;;
75054;SDS011;63636;44.746;10.488;2022-10-16T11:37:57;22.58;;;13.77;;
75054;SDS011;63636;44.746;10.488;2022-10-16T11:40:26;26.23;;;14.95;;
75054;SDS011;63636;44.746;10.488;2022-10-16T11:45:39;24.63;;;13.07;;
75054;SDS011;63636;44.746;10.488;2022-10-16T11:50:54;19.90;;;13.18;;
75054;SDS011;63636;44.746;10.488;2022-10-16T11:55:47;20.95;;;13.60;;
75054;SDS011;63636;44.746;10.488;2022-10-16T11:58:15;21.08;;;13.38;;
75054;SDS011;63636;44.746;10.488;2022-10-16T12:00:55;23.58;;;13.85;;
75054;SDS011;63636;44.746;10.488;2022-10-16T12:08:35;18.08;;;13.07;;
75054;SDS011;63636;44.746;10.488;2022-10-16T12:11:09;19.08;;;12.23;;
75054;SDS011;63636;44.746;10.488;2022-10-16T12:13:45;22.58;;;14.05;;
75054;SDS011;63636;44.746;10.488;2022-10-16T12:18:42;20.77;;;13.40;;
75054;SDS011;63636;44.746;10.488;2022-10-16T12:21:09;22.23;;;12.68;;
75054;SDS011;63636;44.746;10.488;2022-10-16T12:23:54;19.80;;;11.52;;
75054;SDS011;63636;44.746;10.488;2022-10-16T12:26:26;19.42;;;12.27;;
75054;SDS011;63636;44.746;10.488;2022-10-16T12:28:53;20.88;;;13.30;;
75054;SDS011;63636;44.746;10.488;2022-10-16T12:31:19;20.38;;;12.73;;
75054;SDS011;63636;44.746;10.488;2022-10-16T12:33:56;21.60;;;13.02;;
75054;SDS011;63636;44.746;10.488;2022-10-16T12:36:27;18.85;;;11.95;;
75054;SDS011;63636;44.746;10.488;2022-10-16T12:38:53;22.60;;;12.55;;
75054;SDS011;63636;44.746;10.488;2022-10-16T12:43:57;22.77;;;13.20;;
75054;SDS011;63636;44.746;10.488;2022-10-16T12:48:48;20.83;;;12.75;;
75054;SDS011;63636;44.746;10.488;2022-10-16T12:59:15;16.50;;;11.15;;
75054;SDS011;63636;44.746;10.488;2022-10-16T13:04:30;17.88;;;10.90;;
75054;SDS011;63636;44.746;10.488;2022-10-16T13:12:08;19.52;;;12.27;;
75054;SDS011;63636;44.746;10.488;2022-10-16T13:19:40;25.10;;;12.75;;
75054;SDS011;63636;44.746;10.488;2022-10-16T13:24:49;26.45;;;14.00;;
75054;SDS011;63636;44.746;10.488;2022-10-16T13:27:58;24.40;;;12.68;;
75054;SDS011;63636;44.746;10.488;2022-10-16T13:31:13;23.25;;;12.70;;
75054;SDS011;63636;44.746;10.488;2022-10-16T13:35:57;23.30;;;12.68;;
75054;SDS011;63636;44.746;10.488;2022-10-16T13:38:31;20.95;;;12.80;;
75054;SDS011;63636;44.746;10.488;2022-10-16T13:41:13;23.98;;;13.50;;
75054;SDS011;63636;44.746;10.488;2022-10-16T13:43:45;23.92;;;13.63;;
75054;SDS011;63636;44.746;10.488;2022-10-16T13:46:20;23.25;;;13.73;;
75054;SDS011;63636;44.746;10.488;2022-10-16T13:51:27;20.63;;;12.45;;
75054;SDS011;63636;44.746;10.488;2022-10-16T13:53:58;22.73;;;13.25;;
75054;SDS011;63636;44.746;10.488;2022-10-16T13:56:31;25.00;;;13.60;;
75054;SDS011;63636;44.746;10.488;2022-10-16T13:58:59;22.40;;;13.00;;
75054;SDS011;63636;44.746;10.488;2022-10-16T14:01:45;23.02;;;12.43;;
75054;SDS011;63636;44.746;10.488;2022-10-16T14:04:11;20.63;;;11.82;;
75054;SDS011;63636;44.746;10.488;2022-10-16T14:06:41;19.77;;;12.25;;
75054;SDS011;63636;44.746;10.488;2022-10-16T14:09:19;23.88;;;13.32;;
75054;SDS011;63636;44.746;10.488;2022-10-16T14:12:01;23.88;;;12.48;;
75054;SDS011;63636;44.746;10.488;2022-10-16T14:14:32;23.52;;;12.85;;
75054;SDS011;63636;44.746;10.488;2022-10-16T14:19:27;20.85;;;12.82;;
75054;SDS011;63636;44.746;10.488;2022-10-16T14:22:11;21.95;;;12.63;;
75054;SDS011;63636;44.746;10.488;2022-10-16T14:26:15;20.30;;;10.73;;
75054;SDS011;63636;44.746;10.488;2022-10-16T14:32:20;22.88;;;12.85;;
75054;SDS011;63636;44.746;10.488;2022-10-16T14:34:52;21.75;;;12.43;;
75054;SDS011;63636;44.746;10.488;2022-10-16T14:37:23;21.15;;;11.80;;
75054;SDS011;63636;44.746;10.488;2022-10-16T14:39:49;19.83;;;11.32;;
75054;SDS011;63636;44.746;10.488;2022-10-16T14:42:16;23.08;;;11.82;;
75054;SDS011;63636;44.746;10.488;2022-10-16T14:44:44;21.00;;;11.57;;
75054;SDS011;63636;44.746;10.488;2022-10-16T14:47:12;17.85;;;11.27;;
75054;SDS011;63636;44.746;10.488;2022-10-16T14:49:40;20.75;;;12.13;;
75054;SDS011;63636;44.746;10.488;2022-10-16T14:52:10;18.90;;;12.18;;
75054;SDS011;63636;44.746;10.488;2022-10-16T14:54:35;22.83;;;12.55;;
75054;SDS011;63636;44.746;10.488;2022-10-16T14:57:01;20.10;;;12.55;;
75054;SDS011;63636;44.746;10.488;2022-10-16T14:59:40;21.00;;;12.45;;
75054;SDS011;63636;44.746;10.488;2022-10-16T15:02:16;24.20;;;12.20;;
75054;SDS011;63636;44.746;10.488;2022-10-16T15:04:43;22.85;;;12.68;;
75054;SDS011;63636;44.746;10.488;2022-10-16T15:07:09;23.33;;;12.48;;
75054;SDS011;63636;44.746;10.488;2022-10-16T15:09:34;22.48;;;12.25;;
75054;SDS011;63636;44.746;10.488;2022-10-16T15:12:00;23.17;;;11.57;;
75054;SDS011;63636;44.746;10.488;2022-10-16T15:14:25;20.42;;;11.43;;
75054;SDS011;63636;44.746;10.488;2022-10-16T15:16:51;20.70;;;12.02;;
75054;SDS011;63636;44.746;10.488;2022-10-16T15:19:17;21.48;;;11.93;;
75054;SDS011;63636;44.746;10.488;2022-10-16T15:21:42;21.33;;;11.68;;
75054;SDS011;63636;44.746;10.488;2022-10-16T15:24:09;19.95;;;12.35;;
75054;SDS011;63636;44.746;10.488;2022-10-16T15:26:36;22.77;;;10.75;;
75054;SDS011;63636;44.746;10.488;2022-10-16T15:29:02;19.95;;;12.43;;
75054;SDS011;63636;44.746;10.488;2022-10-16T15:31:27;22.52;;;12.75;;
75054;SDS011;63636;44.746;10.488;2022-10-16T15:33:53;21.40;;;12.45;;
75054;SDS011;63636;44.746;10.488;2022-10-16T15:36:41;22.52;;;12.40;;
75054;SDS011;63636;44.746;10.488;2022-10-16T15:39:13;21.55;;;11.98;;
75054;SDS011;63636;44.746;10.488;2022-10-16T15:41:40;20.60;;;11.88;;
75054;SDS011;63636;44.746;10.488;2022-10-16T15:44:06;18.52;;;11.52;;
75054;SDS011;63636;44.746;10.488;2022-10-16T15:46:32;20.20;;;11.27;;
75054;SDS011;63636;44.746;10.488;2022-10-16T15:48:59;23.25;;;11.90;;
75054;SDS011;63636;44.746;10.488;2022-10-16T15:51:25;19.27;;;11.77;;
75054;SDS011;63636;44.746;10.488;2022-10-16T15:53:52;21.73;;;11.40;;
75054;SDS011;63636;44.746;10.488;2022-10-16T15:56:21;18.98;;;11.32;;
75054;SDS011;63636;44.746;10.488;2022-10-16T15:58:47;20.05;;;11.25;;
75054;SDS011;63636;44.746;10.488;2022-10-16T16:01:13;20.13;;;11.18;;
75054;SDS011;63636;44.746;10.488;2022-10-16T16:03:39;21.30;;;11.52;;
75054;SDS011;63636;44.746;10.488;2022-10-16T16:06:08;21.20;;;10.70;;
75054;SDS011;63636;44.746;10.488;2022-10-16T16:08:34;15.80;;;8.95;;
75054;SDS011;63636;44.746;10.488;2022-10-16T16:11:04;18.35;;;9.43;;
75054;SDS011;63636;44.746;10.488;2022-10-16T16:13:30;16.63;;;9.63;;
75054;SDS011;63636;44.746;10.488;2022-10-16T16:15:56;21.27;;;11.27;;
75054;SDS011;63636;44.746;10.488;2022-10-16T16:18:21;18.30;;;10.00;;
75054;SDS011;63636;44.746;10.488;2022-10-16T16:20:49;19.63;;;11.35;;
75054;SDS011;63636;44.746;10.488;2022-10-16T16:23:15;23.65;;;12.07;;
75054;SDS011;63636;44.746;10.488;2022-10-16T16:25:40;20.73;;;12.38;;
75054;SDS011;63636;44.746;10.488;2022-10-16T16:28:06;16.15;;;10.10;;
75054;SDS011;63636;44.746;10.488;2022-10-16T16:30:32;20.55;;;11.32;;
75054;SDS011;63636;44.746;10.488;2022-10-16T16:32:58;20.85;;;11.60;;